Willmar, MN

3:19 AM CDT on July 13, 2014 (GMT -0500)
Paynesville (KPEX) Elev 1181 ft | 45.37 °N, 94.74 °W | Change Station

Current weather conditions updated 5 minutes ago

Clear
Clear
57 °F
Feels Like 57 °F
N
0
Wind Variable Wind from North

Today is forecast to be nearly the same temperature as yesterday.

Today
High -- | Low -- °F
--% Chance of Precip.
Yesterday
High -- | Low -- °F
Precip. -- in
5:45 AM 9:05 PM
Full, 99% visible
Pressure 29.94 in
Visibility 10.0 miles
Clouds Clear
Dew Point 54 °F
Humidity 89%
Rainfall 0.00 in
Snow Depth Not available.
UV 0 out of 12
Pollen 3.40 out of 12
Air Quality Not available.
Flu Activity Sporadic
METAR KPEX 130814Z AUTO 00000KT 10SM CLR 14/12 A2994 RMK AO2 T01380120

More Conditions Fewer Conditions

Pressure 29.94 in
Visibility 10.0 miles
Clouds Clear
Dew Point 54 °F
Humidity 89%
Rainfall 0.00 in
Snow Depth Not available.
UV 0 out of 12
Pollen 3.40 out of 12
Air Quality Not available.
Flu Activity Sporadic
METAR KPEX 130814Z AUTO 00000KT 10SM CLR 14/12 A2994 RMK AO2 T01380120

More Conditions Fewer Conditions

10-Day Weather Forecast

Almanac

Astronomy

Jul. 13, 2014 Rise Set
Actual Time 5:45 AM CDT 9:05 PM CDT
Civil Twilight 5:09 AM CDT 9:41 PM CDT
Nautical Twilight 4:21 AM CDT 10:29 PM CDT
Astronomical Twilight 3:22 AM CDT 11:28 PM CDT
Moon 9:46 PM CDT 7:23 AM CDT
Length of Visible Light 16h 32m
Length of Day
15h 20m
Tomorrow will be 1m 34s shorter.
Full, 99% of the Moon is Illuminated
Today
Full
Jul 18
Last Quarter
Jul 26
New
Aug 3
First Quarter
Aug 10
Full

Today's Extremes

State Highs State Lows

Community

WunderPhotos

Upload Photos

1,733,143 photos uploaded!

Nearby

Snow Depth

Station Depth Elevation
No new snow has been reported.

Earthquake Activity

City Distance Mag. Time & Date
No recent earthquake activity has been reported nearby.
Minimum magnitude displayed is 2.5.

Coastal Water Temperatures

Place Temperature
No Stations Reporting

Nearby Weather Stations

Station Location Temp. Dew Point Humidity Wind Precip. Elev Updated Type
Willmar, Willmar, MN 65.2 °F 60 °F 84% West  at  11.0 mph 0.00 in / hr 1188 ft 3:15 AM CDT Normal
George Lake, Spicer, MN 64.1 °F 60 °F 87% NNE  at  1.0 mph 0.00 in / hr 1171 ft 3:19 AM CDT Normal
Lake Florida, Spicer, MN 64.0 °F 60 °F 87% North  at  1.0 mph 0.00 in / hr 1129 ft 3:15 AM CDT Normal
Sibley, New London, MN 61.5 °F 55 °F 78% West  at  0.0 mph - / hr 1260 ft 3:05 AM CDT Normal
SW of Prinsburg, Prinsburg, MN 65.0 °F 54 °F 68% West  at  0.0 mph 0.00 in / hr 1071 ft 3:15 AM CDT Normal
Cosmos, Cosmos, MN 66.7 °F 65 °F 94% NW  at  5.2 mph 0.00 in / hr 1119 ft 5:10 AM UYT Normal
Renville, Renville, MN 66.9 °F 64 °F 89% West  at  0.0 mph 0.00 in / hr 1063 ft 3:19 AM CDT Rapid Fire

Show More Stations Show Fewer Stations